KPAE/PAE METAR and TAF weather

Enter ICAO airport designator
Station Type Date Time Source
KPAE METAR 2024/02/21 00:53 UTC NOAA

KPAE 210053Z 16009KT 10SM FEW020 SCT033 BKN060 13/06 A2989 RMK AO2 SLP123 T01280056


Station Type Date Time Source
KPAE Decoded METAR 2024/02/21 00:53 UTC NOAA

EVERETT SNOHOMISH COUNTY, WA, United States (KPAE) 47-55N 122-17W 180M
Feb 20, 2024 - 07:53 PM EST / 2024.02.21 0053 UTC
Wind: from the SSE (160 degrees) at 10 MPH (9 KT):0
Visibility: 10 mile(s):0
Sky conditions: mostly cloudy
Temperature: 55.0 F (12.8 C)
Dew Point: 42.1 F (5.6 C)
Relative Humidity: 61%
Pressure (altimeter): 29.89 in. Hg (1012 hPa)
ob: KPAE 210053Z 16009KT 10SM FEW020 SCT033 BKN060 13/06 A2989 RMK AO2 SLP123 T01280056
cycle: 1

Station Type Date Time Source
KPAE TAF 2024/02/20 18:30 UTC NOAA

TAF KPAE 201727Z 2018/2118 13004KT P6SM -SHRA SCT015 OVC025
FM202100 15006KT P6SM -SHRA OVC035
FM210300 12006KT P6SM -RA BKN050 OVC100
FM211300 14008KT P6SM -SHRA OVC030

Example: see airport list